freshjoomlatemplates.com alexa rank chart, freshjoomlatemplates.com alexa rank daily changes

freshjoomlatemplates.com alexa rank chart, freshjoomlatemplates.com alexa rank daily changes

freshjoomlatemplates.com
Actual rank:
451 994

RANK HISTORY

Date Rank Diff
2017/09/19 451 994 +27 851
2017/09/18 424 143 -10 645
2017/09/17 434 788 +12 957
2017/09/16 421 831 +5 353
2017/09/15 416 478 +5 209
2017/09/14 411 269 -1 454
2017/09/13 412 723 +55 195
2017/09/12 357 528 +8 709
2017/09/11 348 819 -8 255
2017/09/10 357 074 -7 293
2017/09/09 364 367 -2 548
2017/09/08 366 915 +5 468
2017/09/07 361 447 -6 240
2017/09/06 367 687 +6 840
2017/09/05 360 847 +5 133
2017/09/04 355 714 +5 017
2017/09/03 350 697 -6 940
2017/09/02 357 637 -7 908
2017/09/01 365 545 -13 410
2017/08/31 378 955 -12 141
2017/08/30 391 096 -6 046
2017/08/29 397 142 +736
2017/08/28 396 406 -1 291
2017/08/27 397 697 -4 066
2017/08/26 401 763 +8 741
2017/08/25 393 022 +7 468
2017/08/24 385 554 -4 401
2017/08/23 389 955 +38
2017/08/22 389 917 -3 195
2017/08/21 393 112 -4 433
2017/08/20 397 545 -22 531
2017/08/19 420 076 -13 533
2017/08/18 433 609 +2 950
2017/08/17 430 659 -12 285
2017/08/16 442 944 -1 965
2017/08/15 444 909 -8 259
2017/08/14 453 168 +5 667
2017/08/13 447 501 -77 630
2017/08/12 525 131 -38 311
2017/08/11 563 442 +15 494
2017/08/10 547 948 +13 105
2017/08/09 534 843 +12 674
2017/08/08 522 169 -296
2017/08/07 522 465 +13 612
2017/08/06 508 853 +10 916
2017/08/05 497 937 -935
2017/08/04 498 872 +622
2017/08/03 498 250 +13 744
2017/08/02 484 506 +7 951
2017/08/01 476 555 +8 194
2017/07/31 468 361 +16 176
2017/07/30 452 185 +623
2017/07/29 451 562 -4 125
2017/07/28 455 687 -1 865
2017/07/27 457 552 +7 824
2017/07/26 449 728 -11 655
2017/07/25 461 383 -22 731
2017/07/24 484 114 -3 038
2017/07/23 487 152 -3 899
2017/07/22 491 051 +6 194
2017/07/21 484 857

WIDGET FOR YOUR SITE

DOMAINS WITH THE NEAREST RANK

Domain Rank
trf2.gov.br 451 989
fashthenation.com 451 990
aliexpress-helper.ru 451 991
ossola24.it 451 992
mysexxxfinder.com 451 993
freshjoomlatemplates.com 451 994
fmtusd.org 451 995
nothingbutsharepoint.com 451 996
shywqc.com 451 997
rawsjp.com 451 998
cadalool.com 451 999

DOMAINS WITH THE NEAREST RANK BY TLD .com

Domain Rank
dvytrk.com 451 981
droold.com 451 984
cheaphumidors.com 451 987
fashthenation.com 451 990
mysexxxfinder.com 451 993
freshjoomlatemplates.com 451 994
nothingbutsharepoint.com 451 996
shywqc.com 451 997
rawsjp.com 451 998
cadalool.com 451 999
intelcapital.com 452 000